Aviation Digital Data Service (ADDS)

Output produced by METARs form (0107 UTC 20 April 2019)
found at http://www.aviationweather.gov/metar/data/
 
Forecast for: MMPB (PUEBLA , MX)
Text: TAF MMPB 191630Z 1918/2018 02012KT P6SM SCT025 BKN100
Forecast period: 1800 to 2100 UTC 19 April 2019
Forecast type: FROM: standard forecast or significant change
Winds: from the NNE (20 degrees) at 14 MPH (12 knots; 6.2 m/s)
Visibility: 6 or more miles 10+ km)
Ceiling: 10000 feet AGL
Clouds: scattered clouds at 2500 feet AGL
broken clouds at 10000 feet AGL
Weather: no significant weather forecast for this period
Text: FM192100 04012KT P6SM BKN030
Forecast period: 2100 UTC 19 April 2019 to 1800 UTC 20 April 2019
Forecast type: FROM: standard forecast or significant change
Winds: from the NE (40 degrees) at 14 MPH (12 knots; 6.2 m/s)
Visibility: 6 or more miles 10+ km)
Ceiling: 3000 feet AGL
Clouds: broken clouds at 3000 feet AGL
Weather: no significant weather forecast for this period
Text: TEMPO 1922/2001 5SM VC RA SCT020CB
Forecast period: 2200 UTC 19 April 2019 to 0100 UTC 20 April 2019
Forecast type: TEMPORARY: The following changes expected for less than half the time period
Visibility: 5 miles (8 km)
Ceiling: at least 12,000 feet AGL
Clouds: scattered clouds at 2000 feet AGL
Weather: VC RA  (vicinity, moderate rain)